sensor_id;sensor_type;location;lat;lon;timestamp;P1;durP1;ratioP1;P2;durP2;ratioP2
13303;SDS011;6720;51.958;4.540;2023-07-22T00:01:35;29.40;;;18.23;;
13303;SDS011;6720;51.958;4.540;2023-07-22T00:04:02;32.70;;;18.20;;
13303;SDS011;6720;51.958;4.540;2023-07-22T00:06:28;26.83;;;17.10;;
13303;SDS011;6720;51.958;4.540;2023-07-22T00:08:53;26.17;;;16.77;;
13303;SDS011;6720;51.958;4.540;2023-07-22T00:11:19;26.43;;;17.50;;
13303;SDS011;6720;51.958;4.540;2023-07-22T00:13:45;24.93;;;17.40;;
13303;SDS011;6720;51.958;4.540;2023-07-22T00:16:10;25.33;;;16.73;;
13303;SDS011;6720;51.958;4.540;2023-07-22T00:18:36;23.63;;;15.93;;
13303;SDS011;6720;51.958;4.540;2023-07-22T00:21:01;24.83;;;17.03;;
13303;SDS011;6720;51.958;4.540;2023-07-22T00:23:27;24.60;;;16.43;;
13303;SDS011;6720;51.958;4.540;2023-07-22T00:25:52;27.40;;;17.40;;
13303;SDS011;6720;51.958;4.540;2023-07-22T00:28:18;26.50;;;17.63;;
13303;SDS011;6720;51.958;4.540;2023-07-22T00:30:43;27.13;;;17.17;;
13303;SDS011;6720;51.958;4.540;2023-07-22T00:33:09;27.07;;;17.60;;
13303;SDS011;6720;51.958;4.540;2023-07-22T00:35:34;24.50;;;16.53;;
13303;SDS011;6720;51.958;4.540;2023-07-22T00:38:00;27.87;;;17.80;;
13303;SDS011;6720;51.958;4.540;2023-07-22T00:40:26;24.77;;;16.23;;
13303;SDS011;6720;51.958;4.540;2023-07-22T00:42:52;22.53;;;16.13;;
13303;SDS011;6720;51.958;4.540;2023-07-22T00:45:18;23.37;;;15.47;;
13303;SDS011;6720;51.958;4.540;2023-07-22T00:47:43;19.37;;;14.50;;
13303;SDS011;6720;51.958;4.540;2023-07-22T00:50:09;23.30;;;15.73;;
13303;SDS011;6720;51.958;4.540;2023-07-22T00:52:35;24.97;;;16.23;;
13303;SDS011;6720;51.958;4.540;2023-07-22T00:55:01;21.77;;;15.47;;
13303;SDS011;6720;51.958;4.540;2023-07-22T00:57:27;21.63;;;15.03;;
13303;SDS011;6720;51.958;4.540;2023-07-22T00:59:53;22.03;;;14.20;;
13303;SDS011;6720;51.958;4.540;2023-07-22T01:02:19;21.17;;;14.27;;
13303;SDS011;6720;51.958;4.540;2023-07-22T01:04:46;17.60;;;12.83;;
13303;SDS011;6720;51.958;4.540;2023-07-22T01:07:12;20.53;;;13.60;;
13303;SDS011;6720;51.958;4.540;2023-07-22T01:09:38;19.60;;;13.50;;
13303;SDS011;6720;51.958;4.540;2023-07-22T01:12:04;19.07;;;13.20;;
13303;SDS011;6720;51.958;4.540;2023-07-22T01:14:37;19.03;;;13.00;;
13303;SDS011;6720;51.958;4.540;2023-07-22T01:17:06;18.93;;;12.60;;
13303;SDS011;6720;51.958;4.540;2023-07-22T01:19:34;20.03;;;13.63;;
13303;SDS011;6720;51.958;4.540;2023-07-22T01:22:00;18.53;;;12.90;;
13303;SDS011;6720;51.958;4.540;2023-07-22T01:24:28;16.87;;;12.40;;
13303;SDS011;6720;51.958;4.540;2023-07-22T01:26:54;16.33;;;12.27;;
13303;SDS011;6720;51.958;4.540;2023-07-22T01:29:21;17.60;;;11.87;;
13303;SDS011;6720;51.958;4.540;2023-07-22T01:31:47;20.30;;;11.97;;
13303;SDS011;6720;51.958;4.540;2023-07-22T01:34:15;17.50;;;12.27;;
13303;SDS011;6720;51.958;4.540;2023-07-22T01:36:40;12.53;;;10.77;;
13303;SDS011;6720;51.958;4.540;2023-07-22T01:39:06;17.60;;;11.27;;
13303;SDS011;6720;51.958;4.540;2023-07-22T01:41:31;15.67;;;11.13;;
13303;SDS011;6720;51.958;4.540;2023-07-22T01:43:57;13.50;;;10.13;;
13303;SDS011;6720;51.958;4.540;2023-07-22T01:46:22;14.83;;;11.03;;
13303;SDS011;6720;51.958;4.540;2023-07-22T01:48:48;11.53;;;8.70;;
13303;SDS011;6720;51.958;4.540;2023-07-22T01:51:13;13.40;;;10.20;;
13303;SDS011;6720;51.958;4.540;2023-07-22T01:53:39;14.37;;;9.53;;
13303;SDS011;6720;51.958;4.540;2023-07-22T01:56:04;12.57;;;9.07;;
13303;SDS011;6720;51.958;4.540;2023-07-22T01:58:30;11.83;;;9.70;;
13303;SDS011;6720;51.958;4.540;2023-07-22T02:00:55;15.83;;;10.10;;
13303;SDS011;6720;51.958;4.540;2023-07-22T02:03:21;14.33;;;10.07;;
13303;SDS011;6720;51.958;4.540;2023-07-22T02:05:46;14.60;;;10.93;;
13303;SDS011;6720;51.958;4.540;2023-07-22T02:08:12;14.87;;;10.37;;
13303;SDS011;6720;51.958;4.540;2023-07-22T02:10:37;15.80;;;10.63;;
13303;SDS011;6720;51.958;4.540;2023-07-22T02:13:02;15.40;;;10.80;;
13303;SDS011;6720;51.958;4.540;2023-07-22T02:15:29;12.30;;;9.73;;
13303;SDS011;6720;51.958;4.540;2023-07-22T02:17:55;12.83;;;9.83;;
13303;SDS011;6720;51.958;4.540;2023-07-22T02:20:21;12.50;;;10.20;;
13303;SDS011;6720;51.958;4.540;2023-07-22T02:22:47;12.87;;;9.73;;
13303;SDS011;6720;51.958;4.540;2023-07-22T02:25:13;13.53;;;10.07;;
13303;SDS011;6720;51.958;4.540;2023-07-22T02:27:40;12.97;;;10.17;;
13303;SDS011;6720;51.958;4.540;2023-07-22T02:30:06;14.27;;;10.60;;
13303;SDS011;6720;51.958;4.540;2023-07-22T02:32:35;15.20;;;10.70;;
13303;SDS011;6720;51.958;4.540;2023-07-22T02:35:05;14.30;;;10.60;;
13303;SDS011;6720;51.958;4.540;2023-07-22T02:37:35;15.50;;;11.13;;
13303;SDS011;6720;51.958;4.540;2023-07-22T02:40:02;15.57;;;10.70;;
13303;SDS011;6720;51.958;4.540;2023-07-22T02:42:32;14.73;;;10.10;;
13303;SDS011;6720;51.958;4.540;2023-07-22T02:44:59;15.73;;;10.73;;
13303;SDS011;6720;51.958;4.540;2023-07-22T02:47:25;13.33;;;10.47;;
13303;SDS011;6720;51.958;4.540;2023-07-22T02:49:50;13.17;;;9.77;;
13303;SDS011;6720;51.958;4.540;2023-07-22T02:52:15;13.23;;;9.80;;
13303;SDS011;6720;51.958;4.540;2023-07-22T02:54:41;13.47;;;10.30;;
13303;SDS011;6720;51.958;4.540;2023-07-22T02:57:06;15.63;;;10.43;;
13303;SDS011;6720;51.958;4.540;2023-07-22T02:59:32;13.97;;;10.10;;
13303;SDS011;6720;51.958;4.540;2023-07-22T03:01:58;13.13;;;9.83;;
13303;SDS011;6720;51.958;4.540;2023-07-22T03:04:23;11.40;;;9.37;;
13303;SDS011;6720;51.958;4.540;2023-07-22T03:06:49;13.30;;;9.43;;
13303;SDS011;6720;51.958;4.540;2023-07-22T03:09:14;12.77;;;9.17;;
13303;SDS011;6720;51.958;4.540;2023-07-22T03:11:40;12.23;;;8.87;;
13303;SDS011;6720;51.958;4.540;2023-07-22T03:14:05;11.43;;;9.73;;
13303;SDS011;6720;51.958;4.540;2023-07-22T03:16:31;13.23;;;8.90;;
13303;SDS011;6720;51.958;4.540;2023-07-22T03:18:57;13.80;;;8.70;;
13303;SDS011;6720;51.958;4.540;2023-07-22T03:21:22;12.50;;;9.13;;
13303;SDS011;6720;51.958;4.540;2023-07-22T03:23:48;11.17;;;8.30;;
13303;SDS011;6720;51.958;4.540;2023-07-22T03:26:14;10.87;;;8.67;;
13303;SDS011;6720;51.958;4.540;2023-07-22T03:28:39;11.27;;;8.67;;
13303;SDS011;6720;51.958;4.540;2023-07-22T03:31:06;13.30;;;9.67;;
13303;SDS011;6720;51.958;4.540;2023-07-22T03:33:33;11.37;;;8.90;;
13303;SDS011;6720;51.958;4.540;2023-07-22T03:35:59;12.80;;;9.10;;
13303;SDS011;6720;51.958;4.540;2023-07-22T03:38:25;14.67;;;8.63;;
13303;SDS011;6720;51.958;4.540;2023-07-22T03:40:51;13.17;;;9.33;;
13303;SDS011;6720;51.958;4.540;2023-07-22T03:43:18;13.40;;;9.63;;
13303;SDS011;6720;51.958;4.540;2023-07-22T03:45:43;14.00;;;9.10;;
13303;SDS011;6720;51.958;4.540;2023-07-22T03:48:09;11.53;;;9.07;;
13303;SDS011;6720;51.958;4.540;2023-07-22T03:50:34;13.03;;;9.80;;
13303;SDS011;6720;51.958;4.540;2023-07-22T03:53:00;13.93;;;9.07;;
13303;SDS011;6720;51.958;4.540;2023-07-22T03:55:25;15.07;;;10.17;;
13303;SDS011;6720;51.958;4.540;2023-07-22T03:57:51;13.27;;;9.70;;
13303;SDS011;6720;51.958;4.540;2023-07-22T04:00:16;16.60;;;11.00;;
13303;SDS011;6720;51.958;4.540;2023-07-22T04:02:42;20.70;;;13.50;;
13303;SDS011;6720;51.958;4.540;2023-07-22T04:05:08;22.20;;;13.53;;
13303;SDS011;6720;51.958;4.540;2023-07-22T04:07:34;28.43;;;13.63;;
13303;SDS011;6720;51.958;4.540;2023-07-22T04:09:59;23.77;;;14.43;;
13303;SDS011;6720;51.958;4.540;2023-07-22T04:12:24;19.53;;;13.23;;
13303;SDS011;6720;51.958;4.540;2023-07-22T04:14:50;22.80;;;14.30;;
13303;SDS011;6720;51.958;4.540;2023-07-22T04:17:15;26.83;;;15.70;;
13303;SDS011;6720;51.958;4.540;2023-07-22T04:19:41;31.73;;;18.30;;
13303;SDS011;6720;51.958;4.540;2023-07-22T04:22:08;39.27;;;20.57;;
13303;SDS011;6720;51.958;4.540;2023-07-22T04:24:33;31.20;;;17.03;;
13303;SDS011;6720;51.958;4.540;2023-07-22T04:26:59;36.47;;;20.13;;
13303;SDS011;6720;51.958;4.540;2023-07-22T04:29:25;43.23;;;21.93;;
13303;SDS011;6720;51.958;4.540;2023-07-22T04:31:51;45.20;;;22.73;;
13303;SDS011;6720;51.958;4.540;2023-07-22T04:34:16;45.03;;;21.37;;
13303;SDS011;6720;51.958;4.540;2023-07-22T04:36:42;50.03;;;23.23;;
13303;SDS011;6720;51.958;4.540;2023-07-22T04:39:08;47.30;;;25.10;;
13303;SDS011;6720;51.958;4.540;2023-07-22T04:41:34;44.93;;;24.03;;
13303;SDS011;6720;51.958;4.540;2023-07-22T04:43:59;48.67;;;24.17;;
13303;SDS011;6720;51.958;4.540;2023-07-22T04:46:25;50.27;;;26.00;;
13303;SDS011;6720;51.958;4.540;2023-07-22T04:48:54;51.47;;;25.67;;
13303;SDS011;6720;51.958;4.540;2023-07-22T04:51:21;46.10;;;25.83;;
13303;SDS011;6720;51.958;4.540;2023-07-22T04:53:46;48.53;;;27.47;;
13303;SDS011;6720;51.958;4.540;2023-07-22T04:56:11;46.43;;;26.70;;
13303;SDS011;6720;51.958;4.540;2023-07-22T04:58:37;52.87;;;25.97;;
13303;SDS011;6720;51.958;4.540;2023-07-22T05:01:03;51.17;;;27.00;;
13303;SDS011;6720;51.958;4.540;2023-07-22T05:03:29;49.10;;;27.63;;
13303;SDS011;6720;51.958;4.540;2023-07-22T05:05:54;46.83;;;26.50;;
13303;SDS011;6720;51.958;4.540;2023-07-22T05:08:19;46.03;;;26.63;;
13303;SDS011;6720;51.958;4.540;2023-07-22T05:10:46;45.67;;;26.57;;
13303;SDS011;6720;51.958;4.540;2023-07-22T05:13:11;48.70;;;26.93;;
13303;SDS011;6720;51.958;4.540;2023-07-22T05:15:37;47.67;;;27.10;;
13303;SDS011;6720;51.958;4.540;2023-07-22T05:18:02;44.23;;;26.20;;
13303;SDS011;6720;51.958;4.540;2023-07-22T05:20:30;53.20;;;27.40;;
13303;SDS011;6720;51.958;4.540;2023-07-22T05:22:56;52.43;;;27.00;;
13303;SDS011;6720;51.958;4.540;2023-07-22T05:25:21;47.30;;;26.27;;
13303;SDS011;6720;51.958;4.540;2023-07-22T05:27:47;45.07;;;25.53;;
13303;SDS011;6720;51.958;4.540;2023-07-22T05:30:12;48.00;;;26.73;;
13303;SDS011;6720;51.958;4.540;2023-07-22T05:32:39;43.53;;;24.03;;
13303;SDS011;6720;51.958;4.540;2023-07-22T05:35:04;44.80;;;25.40;;
13303;SDS011;6720;51.958;4.540;2023-07-22T05:37:30;44.80;;;24.97;;
13303;SDS011;6720;51.958;4.540;2023-07-22T05:39:56;51.57;;;26.20;;
13303;SDS011;6720;51.958;4.540;2023-07-22T05:42:22;40.77;;;24.97;;
13303;SDS011;6720;51.958;4.540;2023-07-22T05:44:50;42.47;;;25.03;;
13303;SDS011;6720;51.958;4.540;2023-07-22T05:47:15;47.40;;;26.40;;
13303;SDS011;6720;51.958;4.540;2023-07-22T05:49:40;42.47;;;25.00;;
13303;SDS011;6720;51.958;4.540;2023-07-22T05:52:06;37.77;;;23.30;;
13303;SDS011;6720;51.958;4.540;2023-07-22T05:54:31;39.80;;;23.80;;
13303;SDS011;6720;51.958;4.540;2023-07-22T05:56:57;37.40;;;23.67;;
13303;SDS011;6720;51.958;4.540;2023-07-22T05:59:22;37.47;;;23.93;;
13303;SDS011;6720;51.958;4.540;2023-07-22T06:01:48;44.87;;;24.37;;
13303;SDS011;6720;51.958;4.540;2023-07-22T06:04:13;40.17;;;23.30;;
13303;SDS011;6720;51.958;4.540;2023-07-22T06:06:39;39.97;;;22.93;;
13303;SDS011;6720;51.958;4.540;2023-07-22T06:09:04;39.00;;;23.10;;
13303;SDS011;6720;51.958;4.540;2023-07-22T06:11:29;39.40;;;23.40;;
13303;SDS011;6720;51.958;4.540;2023-07-22T06:13:55;39.60;;;22.63;;
13303;SDS011;6720;51.958;4.540;2023-07-22T06:16:20;37.63;;;21.07;;
13303;SDS011;6720;51.958;4.540;2023-07-22T06:18:46;36.23;;;21.90;;
13303;SDS011;6720;51.958;4.540;2023-07-22T06:21:11;33.87;;;21.73;;
13303;SDS011;6720;51.958;4.540;2023-07-22T06:23:37;36.37;;;21.67;;
13303;SDS011;6720;51.958;4.540;2023-07-22T06:26:02;32.93;;;21.60;;
13303;SDS011;6720;51.958;4.540;2023-07-22T06:28:28;33.53;;;20.37;;
13303;SDS011;6720;51.958;4.540;2023-07-22T06:30:53;33.80;;;21.00;;
13303;SDS011;6720;51.958;4.540;2023-07-22T06:33:18;30.70;;;20.27;;
13303;SDS011;6720;51.958;4.540;2023-07-22T06:35:44;30.67;;;21.13;;
13303;SDS011;6720;51.958;4.540;2023-07-22T06:38:09;30.13;;;20.87;;
13303;SDS011;6720;51.958;4.540;2023-07-22T06:40:34;34.07;;;20.53;;
13303;SDS011;6720;51.958;4.540;2023-07-22T06:43:00;33.47;;;21.33;;
13303;SDS011;6720;51.958;4.540;2023-07-22T06:45:25;29.73;;;20.00;;
13303;SDS011;6720;51.958;4.540;2023-07-22T06:47:51;32.20;;;21.07;;
13303;SDS011;6720;51.958;4.540;2023-07-22T06:50:16;30.10;;;20.97;;
13303;SDS011;6720;51.958;4.540;2023-07-22T06:52:42;31.43;;;20.83;;
13303;SDS011;6720;51.958;4.540;2023-07-22T06:55:08;31.33;;;20.70;;
13303;SDS011;6720;51.958;4.540;2023-07-22T06:57:33;34.53;;;20.70;;
13303;SDS011;6720;51.958;4.540;2023-07-22T06:59:59;30.60;;;20.47;;
13303;SDS011;6720;51.958;4.540;2023-07-22T07:02:25;32.83;;;21.90;;
13303;SDS011;6720;51.958;4.540;2023-07-22T07:04:51;29.23;;;20.17;;
13303;SDS011;6720;51.958;4.540;2023-07-22T07:07:17;32.53;;;22.77;;
13303;SDS011;6720;51.958;4.540;2023-07-22T07:09:42;30.30;;;20.70;;
13303;SDS011;6720;51.958;4.540;2023-07-22T07:12:08;32.23;;;20.97;;
13303;SDS011;6720;51.958;4.540;2023-07-22T07:14:34;32.93;;;21.47;;
13303;SDS011;6720;51.958;4.540;2023-07-22T07:17:00;34.17;;;20.87;;
13303;SDS011;6720;51.958;4.540;2023-07-22T07:19:26;29.50;;;20.23;;
13303;SDS011;6720;51.958;4.540;2023-07-22T07:21:52;25.37;;;19.00;;
13303;SDS011;6720;51.958;4.540;2023-07-22T07:24:18;34.47;;;20.13;;
13303;SDS011;6720;51.958;4.540;2023-07-22T07:26:43;27.03;;;19.17;;
13303;SDS011;6720;51.958;4.540;2023-07-22T07:29:09;29.17;;;20.17;;
13303;SDS011;6720;51.958;4.540;2023-07-22T07:31:35;25.13;;;19.97;;
13303;SDS011;6720;51.958;4.540;2023-07-22T07:34:00;25.53;;;19.00;;
13303;SDS011;6720;51.958;4.540;2023-07-22T07:36:26;32.70;;;19.80;;
13303;SDS011;6720;51.958;4.540;2023-07-22T07:38:51;27.93;;;19.47;;
13303;SDS011;6720;51.958;4.540;2023-07-22T07:41:17;28.57;;;19.70;;
13303;SDS011;6720;51.958;4.540;2023-07-22T07:43:42;26.17;;;19.57;;
13303;SDS011;6720;51.958;4.540;2023-07-22T07:46:27;22.93;;;17.53;;
13303;SDS011;6720;51.958;4.540;2023-07-22T07:51:21;23.83;;;17.33;;
13303;SDS011;6720;51.958;4.540;2023-07-22T07:53:47;22.77;;;16.50;;
13303;SDS011;6720;51.958;4.540;2023-07-22T07:56:13;22.77;;;16.17;;
13303;SDS011;6720;51.958;4.540;2023-07-22T07:58:40;19.47;;;14.80;;
13303;SDS011;6720;51.958;4.540;2023-07-22T08:01:06;18.67;;;13.67;;
13303;SDS011;6720;51.958;4.540;2023-07-22T08:03:32;17.73;;;13.83;;
13303;SDS011;6720;51.958;4.540;2023-07-22T08:06:00;17.20;;;13.30;;
13303;SDS011;6720;51.958;4.540;2023-07-22T08:08:26;12.90;;;10.30;;
13303;SDS011;6720;51.958;4.540;2023-07-22T08:11:07;14.50;;;10.80;;
13303;SDS011;6720;51.958;4.540;2023-07-22T08:13:34;12.90;;;8.73;;
13303;SDS011;6720;51.958;4.540;2023-07-22T08:16:02;15.23;;;9.67;;
13303;SDS011;6720;51.958;4.540;2023-07-22T08:18:29;9.33;;;8.33;;
13303;SDS011;6720;51.958;4.540;2023-07-22T08:20:55;12.47;;;8.80;;
13303;SDS011;6720;51.958;4.540;2023-07-22T08:23:21;12.50;;;8.80;;
13303;SDS011;6720;51.958;4.540;2023-07-22T08:25:47;12.43;;;8.57;;
13303;SDS011;6720;51.958;4.540;2023-07-22T08:28:13;12.40;;;8.80;;
13303;SDS011;6720;51.958;4.540;2023-07-22T08:30:39;9.93;;;8.47;;
13303;SDS011;6720;51.958;4.540;2023-07-22T08:33:05;15.20;;;9.27;;
13303;SDS011;6720;51.958;4.540;2023-07-22T08:35:33;9.93;;;8.03;;
13303;SDS011;6720;51.958;4.540;2023-07-22T08:37:59;13.73;;;8.80;;
13303;SDS011;6720;51.958;4.540;2023-07-22T08:40:25;10.97;;;7.27;;
13303;SDS011;6720;51.958;4.540;2023-07-22T08:42:50;8.63;;;7.07;;
13303;SDS011;6720;51.958;4.540;2023-07-22T08:45:17;8.70;;;6.50;;
13303;SDS011;6720;51.958;4.540;2023-07-22T08:47:47;11.03;;;7.33;;
13303;SDS011;6720;51.958;4.540;2023-07-22T08:50:16;10.63;;;6.90;;
13303;SDS011;6720;51.958;4.540;2023-07-22T08:52:45;9.40;;;6.73;;
13303;SDS011;6720;51.958;4.540;2023-07-22T08:55:12;12.50;;;8.50;;
13303;SDS011;6720;51.958;4.540;2023-07-22T08:57:39;9.50;;;7.27;;
13303;SDS011;6720;51.958;4.540;2023-07-22T09:00:05;12.60;;;6.70;;
13303;SDS011;6720;51.958;4.540;2023-07-22T09:02:35;9.37;;;7.20;;
13303;SDS011;6720;51.958;4.540;2023-07-22T09:05:01;12.43;;;7.00;;
13303;SDS011;6720;51.958;4.540;2023-07-22T09:07:27;11.60;;;7.07;;
13303;SDS011;6720;51.958;4.540;2023-07-22T09:09:53;10.43;;;6.87;;
13303;SDS011;6720;51.958;4.540;2023-07-22T09:12:21;11.43;;;6.00;;
13303;SDS011;6720;51.958;4.540;2023-07-22T09:14:46;11.37;;;6.83;;
13303;SDS011;6720;51.958;4.540;2023-07-22T09:17:14;9.90;;;6.37;;
13303;SDS011;6720;51.958;4.540;2023-07-22T09:19:40;10.73;;;6.07;;
13303;SDS011;6720;51.958;4.540;2023-07-22T09:22:05;7.50;;;5.43;;
13303;SDS011;6720;51.958;4.540;2023-07-22T09:24:32;9.87;;;5.83;;
13303;SDS011;6720;51.958;4.540;2023-07-22T09:26:58;7.33;;;6.13;;
13303;SDS011;6720;51.958;4.540;2023-07-22T09:29:38;8.20;;;5.27;;
13303;SDS011;6720;51.958;4.540;2023-07-22T09:32:05;7.90;;;5.33;;
13303;SDS011;6720;51.958;4.540;2023-07-22T09:34:30;10.27;;;5.50;;
13303;SDS011;6720;51.958;4.540;2023-07-22T09:36:57;8.30;;;5.43;;
13303;SDS011;6720;51.958;4.540;2023-07-22T09:39:26;11.40;;;5.53;;
13303;SDS011;6720;51.958;4.540;2023-07-22T09:41:51;5.80;;;4.73;;
13303;SDS011;6720;51.958;4.540;2023-07-22T09:44:20;7.60;;;4.90;;
13303;SDS011;6720;51.958;4.540;2023-07-22T09:46:47;7.77;;;4.83;;
13303;SDS011;6720;51.958;4.540;2023-07-22T09:49:15;7.07;;;4.80;;
13303;SDS011;6720;51.958;4.540;2023-07-22T09:51:42;6.90;;;4.33;;
13303;SDS011;6720;51.958;4.540;2023-07-22T09:54:08;6.40;;;4.60;;
13303;SDS011;6720;51.958;4.540;2023-07-22T09:56:43;6.70;;;5.10;;
13303;SDS011;6720;51.958;4.540;2023-07-22T09:59:11;6.50;;;4.80;;
13303;SDS011;6720;51.958;4.540;2023-07-22T10:01:40;6.27;;;4.50;;
13303;SDS011;6720;51.958;4.540;2023-07-22T10:04:06;7.07;;;5.00;;
13303;SDS011;6720;51.958;4.540;2023-07-22T10:06:32;7.10;;;4.73;;
13303;SDS011;6720;51.958;4.540;2023-07-22T10:09:01;7.60;;;5.13;;
13303;SDS011;6720;51.958;4.540;2023-07-22T10:11:29;9.37;;;5.17;;
13303;SDS011;6720;51.958;4.540;2023-07-22T10:13:55;6.43;;;4.13;;
13303;SDS011;6720;51.958;4.540;2023-07-22T10:16:21;6.47;;;4.20;;
13303;SDS011;6720;51.958;4.540;2023-07-22T10:18:48;6.97;;;3.90;;
13303;SDS011;6720;51.958;4.540;2023-07-22T10:21:14;4.77;;;4.10;;
13303;SDS011;6720;51.958;4.540;2023-07-22T10:23:40;4.80;;;3.87;;
13303;SDS011;6720;51.958;4.540;2023-07-22T10:26:06;4.63;;;3.77;;
13303;SDS011;6720;51.958;4.540;2023-07-22T10:28:32;5.37;;;3.40;;
13303;SDS011;6720;51.958;4.540;2023-07-22T10:30:58;5.73;;;3.50;;
13303;SDS011;6720;51.958;4.540;2023-07-22T10:33:24;4.43;;;3.80;;
13303;SDS011;6720;51.958;4.540;2023-07-22T10:36:09;6.47;;;3.90;;
13303;SDS011;6720;51.958;4.540;2023-07-22T10:38:39;6.27;;;3.90;;
13303;SDS011;6720;51.958;4.540;2023-07-22T10:41:14;6.17;;;3.57;;
13303;SDS011;6720;51.958;4.540;2023-07-22T10:43:42;6.93;;;4.00;;
13303;SDS011;6720;51.958;4.540;2023-07-22T10:46:19;8.53;;;4.03;;
13303;SDS011;6720;51.958;4.540;2023-07-22T10:49:00;4.37;;;3.87;;
13303;SDS011;6720;51.958;4.540;2023-07-22T10:51:35;6.60;;;4.07;;
13303;SDS011;6720;51.958;4.540;2023-07-22T10:54:01;6.20;;;3.83;;
13303;SDS011;6720;51.958;4.540;2023-07-22T10:56:26;6.33;;;4.17;;
13303;SDS011;6720;51.958;4.540;2023-07-22T11:04:26;7.37;;;4.00;;
13303;SDS011;6720;51.958;4.540;2023-07-22T11:11:52;6.30;;;3.70;;
13303;SDS011;6720;51.958;4.540;2023-07-22T11:14:23;4.20;;;3.43;;
13303;SDS011;6720;51.958;4.540;2023-07-22T11:16:50;6.50;;;3.70;;
13303;SDS011;6720;51.958;4.540;2023-07-22T11:19:18;4.90;;;3.23;;
13303;SDS011;6720;51.958;4.540;2023-07-22T11:21:45;5.23;;;3.40;;
13303;SDS011;6720;51.958;4.540;2023-07-22T11:24:14;4.60;;;3.30;;
13303;SDS011;6720;51.958;4.540;2023-07-22T11:26:41;4.57;;;3.20;;
13303;SDS011;6720;51.958;4.540;2023-07-22T11:29:07;4.77;;;3.40;;
13303;SDS011;6720;51.958;4.540;2023-07-22T11:31:34;4.73;;;3.03;;
13303;SDS011;6720;51.958;4.540;2023-07-22T11:34:14;4.43;;;3.40;;
13303;SDS011;6720;51.958;4.540;2023-07-22T11:36:40;4.37;;;3.40;;
13303;SDS011;6720;51.958;4.540;2023-07-22T11:39:09;5.97;;;3.30;;
13303;SDS011;6720;51.958;4.540;2023-07-22T11:41:39;5.23;;;3.30;;
13303;SDS011;6720;51.958;4.540;2023-07-22T11:44:09;4.47;;;3.50;;
13303;SDS011;6720;51.958;4.540;2023-07-22T11:46:57;4.40;;;2.93;;
13303;SDS011;6720;51.958;4.540;2023-07-22T11:49:46;5.30;;;3.33;;
13303;SDS011;6720;51.958;4.540;2023-07-22T11:52:15;5.43;;;2.97;;
13303;SDS011;6720;51.958;4.540;2023-07-22T11:54:45;6.30;;;2.73;;
13303;SDS011;6720;51.958;4.540;2023-07-22T11:59:46;4.37;;;2.70;;
13303;SDS011;6720;51.958;4.540;2023-07-22T12:02:15;4.13;;;2.77;;
13303;SDS011;6720;51.958;4.540;2023-07-22T12:04:43;3.13;;;2.60;;
13303;SDS011;6720;51.958;4.540;2023-07-22T12:07:32;3.10;;;2.50;;
13303;SDS011;6720;51.958;4.540;2023-07-22T12:09:59;4.77;;;2.87;;
13303;SDS011;6720;51.958;4.540;2023-07-22T12:12:37;5.33;;;2.67;;
13303;SDS011;6720;51.958;4.540;2023-07-22T12:15:08;3.93;;;2.67;;
13303;SDS011;6720;51.958;4.540;2023-07-22T12:17:45;6.17;;;3.10;;
13303;SDS011;6720;51.958;4.540;2023-07-22T12:20:12;4.10;;;2.80;;
13303;SDS011;6720;51.958;4.540;2023-07-22T12:22:37;6.10;;;3.03;;
13303;SDS011;6720;51.958;4.540;2023-07-22T12:25:03;6.00;;;3.00;;
13303;SDS011;6720;51.958;4.540;2023-07-22T12:27:29;7.53;;;2.90;;
13303;SDS011;6720;51.958;4.540;2023-07-22T12:29:54;6.03;;;2.93;;
13303;SDS011;6720;51.958;4.540;2023-07-22T12:32:19;3.60;;;2.83;;
13303;SDS011;6720;51.958;4.540;2023-07-22T12:34:45;4.40;;;2.70;;
13303;SDS011;6720;51.958;4.540;2023-07-22T12:37:10;5.97;;;2.50;;
13303;SDS011;6720;51.958;4.540;2023-07-22T12:39:35;3.80;;;2.47;;
13303;SDS011;6720;51.958;4.540;2023-07-22T12:42:01;5.27;;;2.90;;
13303;SDS011;6720;51.958;4.540;2023-07-22T12:44:26;3.87;;;2.60;;
13303;SDS011;6720;51.958;4.540;2023-07-22T12:46:52;4.60;;;2.90;;
13303;SDS011;6720;51.958;4.540;2023-07-22T12:49:18;4.13;;;2.90;;
13303;SDS011;6720;51.958;4.540;2023-07-22T12:51:44;5.10;;;2.70;;
13303;SDS011;6720;51.958;4.540;2023-07-22T12:54:09;3.30;;;2.80;;
13303;SDS011;6720;51.958;4.540;2023-07-22T12:56:35;5.70;;;3.30;;
13303;SDS011;6720;51.958;4.540;2023-07-22T12:59:00;4.57;;;2.80;;
13303;SDS011;6720;51.958;4.540;2023-07-22T13:01:25;3.53;;;2.70;;
13303;SDS011;6720;51.958;4.540;2023-07-22T13:03:51;5.23;;;2.80;;
13303;SDS011;6720;51.958;4.540;2023-07-22T13:06:16;5.30;;;2.90;;
13303;SDS011;6720;51.958;4.540;2023-07-22T13:08:42;5.47;;;2.73;;
13303;SDS011;6720;51.958;4.540;2023-07-22T13:11:07;3.73;;;3.00;;
13303;SDS011;6720;51.958;4.540;2023-07-22T13:13:32;3.70;;;2.90;;
13303;SDS011;6720;51.958;4.540;2023-07-22T13:15:58;4.17;;;2.43;;
13303;SDS011;6720;51.958;4.540;2023-07-22T13:18:23;3.37;;;2.47;;
13303;SDS011;6720;51.958;4.540;2023-07-22T13:20:49;5.97;;;2.77;;
13303;SDS011;6720;51.958;4.540;2023-07-22T13:23:14;4.47;;;2.70;;
13303;SDS011;6720;51.958;4.540;2023-07-22T13:25:39;4.00;;;2.70;;
13303;SDS011;6720;51.958;4.540;2023-07-22T13:28:05;2.97;;;2.60;;
13303;SDS011;6720;51.958;4.540;2023-07-22T13:30:30;2.87;;;2.40;;
13303;SDS011;6720;51.958;4.540;2023-07-22T13:32:56;6.40;;;2.90;;
13303;SDS011;6720;51.958;4.540;2023-07-22T13:35:21;3.93;;;2.73;;
13303;SDS011;6720;51.958;4.540;2023-07-22T13:37:47;4.40;;;2.63;;
13303;SDS011;6720;51.958;4.540;2023-07-22T13:40:12;3.53;;;2.70;;
13303;SDS011;6720;51.958;4.540;2023-07-22T13:42:38;3.63;;;2.77;;
13303;SDS011;6720;51.958;4.540;2023-07-22T13:45:04;4.03;;;2.80;;
13303;SDS011;6720;51.958;4.540;2023-07-22T13:47:30;3.77;;;2.83;;
13303;SDS011;6720;51.958;4.540;2023-07-22T13:49:55;3.07;;;2.40;;
13303;SDS011;6720;51.958;4.540;2023-07-22T13:52:21;4.93;;;2.77;;
13303;SDS011;6720;51.958;4.540;2023-07-22T13:54:46;4.60;;;3.10;;
13303;SDS011;6720;51.958;4.540;2023-07-22T13:57:12;4.37;;;3.00;;
13303;SDS011;6720;51.958;4.540;2023-07-22T13:59:37;5.13;;;3.27;;
13303;SDS011;6720;51.958;4.540;2023-07-22T14:02:03;3.57;;;2.83;;
13303;SDS011;6720;51.958;4.540;2023-07-22T14:04:30;4.87;;;2.70;;
13303;SDS011;6720;51.958;4.540;2023-07-22T14:06:56;5.40;;;2.67;;
13303;SDS011;6720;51.958;4.540;2023-07-22T14:09:22;5.00;;;3.07;;
13303;SDS011;6720;51.958;4.540;2023-07-22T14:11:47;6.23;;;3.07;;
13303;SDS011;6720;51.958;4.540;2023-07-22T14:14:12;5.67;;;3.20;;
13303;SDS011;6720;51.958;4.540;2023-07-22T14:16:38;4.67;;;3.13;;
13303;SDS011;6720;51.958;4.540;2023-07-22T14:19:03;4.23;;;2.97;;
13303;SDS011;6720;51.958;4.540;2023-07-22T14:21:29;4.07;;;3.30;;
13303;SDS011;6720;51.958;4.540;2023-07-22T14:23:54;3.90;;;3.00;;
13303;SDS011;6720;51.958;4.540;2023-07-22T14:26:20;4.80;;;4.00;;
13303;SDS011;6720;51.958;4.540;2023-07-22T14:28:45;7.77;;;3.50;;
13303;SDS011;6720;51.958;4.540;2023-07-22T14:31:11;4.13;;;3.70;;
13303;SDS011;6720;51.958;4.540;2023-07-22T14:33:37;6.30;;;3.63;;
13303;SDS011;6720;51.958;4.540;2023-07-22T14:36:02;7.60;;;4.00;;
13303;SDS011;6720;51.958;4.540;2023-07-22T14:38:28;4.67;;;3.23;;
13303;SDS011;6720;51.958;4.540;2023-07-22T14:40:53;6.50;;;3.80;;
13303;SDS011;6720;51.958;4.540;2023-07-22T14:43:19;5.93;;;3.60;;
13303;SDS011;6720;51.958;4.540;2023-07-22T14:45:44;6.17;;;3.37;;
13303;SDS011;6720;51.958;4.540;2023-07-22T14:48:10;7.77;;;3.70;;
13303;SDS011;6720;51.958;4.540;2023-07-22T14:50:35;7.43;;;3.67;;
13303;SDS011;6720;51.958;4.540;2023-07-22T14:53:01;6.37;;;3.67;;
13303;SDS011;6720;51.958;4.540;2023-07-22T14:55:26;6.20;;;4.13;;
13303;SDS011;6720;51.958;4.540;2023-07-22T14:57:51;5.13;;;3.63;;